sensor_id;sensor_type;location;lat;lon;timestamp;pressure;altitude;pressure_sealevel;temperature;humidity
59588;BME280;45412;54.472;18.464;2023-02-19T00:00:37;99044.20;;;2.27;85.13
59588;BME280;45412;54.472;18.464;2023-02-19T00:03:48;99039.48;;;2.27;85.18
59588;BME280;45412;54.472;18.464;2023-02-19T00:06:37;99038.84;;;2.26;85.24
59588;BME280;45412;54.472;18.464;2023-02-19T00:09:25;99048.13;;;2.25;85.23
59588;BME280;45412;54.472;18.464;2023-02-19T00:12:13;99044.45;;;2.25;85.28
59588;BME280;45412;54.472;18.464;2023-02-19T00:15:01;99053.21;;;2.28;85.39
59588;BME280;45412;54.472;18.464;2023-02-19T00:17:49;99054.03;;;2.29;85.40
59588;BME280;45412;54.472;18.464;2023-02-19T00:20:37;99053.02;;;2.31;85.30
59588;BME280;45412;54.472;18.464;2023-02-19T00:23:25;99054.02;;;2.32;85.42
59588;BME280;45412;54.472;18.464;2023-02-19T00:26:14;99056.77;;;2.33;85.17
59588;BME280;45412;54.472;18.464;2023-02-19T00:29:06;99052.70;;;2.37;85.12
59588;BME280;45412;54.472;18.464;2023-02-19T00:31:54;99049.95;;;2.39;84.96
59588;BME280;45412;54.472;18.464;2023-02-19T00:34:43;99042.88;;;2.41;84.79
59588;BME280;45412;54.472;18.464;2023-02-19T00:37:31;99039.20;;;2.40;84.71
59588;BME280;45412;54.472;18.464;2023-02-19T00:40:19;99046.15;;;2.41;84.67
59588;BME280;45412;54.472;18.464;2023-02-19T00:43:07;99049.39;;;2.40;84.62
59588;BME280;45412;54.472;18.464;2023-02-19T00:45:55;99051.88;;;2.39;84.64
59588;BME280;45412;54.472;18.464;2023-02-19T00:48:43;99054.96;;;2.37;84.52
59588;BME280;45412;54.472;18.464;2023-02-19T00:51:35;99055.00;;;2.36;84.60
59588;BME280;45412;54.472;18.464;2023-02-19T00:54:23;99065.61;;;2.37;84.56
59588;BME280;45412;54.472;18.464;2023-02-19T00:57:11;99065.20;;;2.36;84.21
59588;BME280;45412;54.472;18.464;2023-02-19T00:59:59;99068.35;;;2.36;84.48
59588;BME280;45412;54.472;18.464;2023-02-19T01:02:47;99069.69;;;2.36;84.27
59588;BME280;45412;54.472;18.464;2023-02-19T01:05:36;99070.40;;;2.39;84.46
59588;BME280;45412;54.472;18.464;2023-02-19T01:08:24;99065.56;;;2.44;84.46
59588;BME280;45412;54.472;18.464;2023-02-19T01:11:13;99058.39;;;2.47;84.31
59588;BME280;45412;54.472;18.464;2023-02-19T01:14:02;99050.81;;;2.48;83.97
59588;BME280;45412;54.472;18.464;2023-02-19T01:16:51;99053.94;;;2.48;83.83
59588;BME280;45412;54.472;18.464;2023-02-19T01:19:39;99044.71;;;2.47;83.73
59588;BME280;45412;54.472;18.464;2023-02-19T01:22:27;99039.28;;;2.47;83.73
59588;BME280;45412;54.472;18.464;2023-02-19T01:25:15;99044.67;;;2.45;83.63
59588;BME280;45412;54.472;18.464;2023-02-19T01:28:03;99054.22;;;2.44;83.64
59588;BME280;45412;54.472;18.464;2023-02-19T01:30:51;99059.05;;;2.42;83.81
59588;BME280;45412;54.472;18.464;2023-02-19T01:33:38;99071.31;;;2.39;83.66
59588;BME280;45412;54.472;18.464;2023-02-19T01:36:28;99062.30;;;2.37;83.88
59588;BME280;45412;54.472;18.464;2023-02-19T01:39:16;99059.94;;;2.39;83.79
59588;BME280;45412;54.472;18.464;2023-02-19T01:42:12;99065.52;;;2.39;83.84
59588;BME280;45412;54.472;18.464;2023-02-19T01:48:20;99063.35;;;2.41;83.84
59588;BME280;45412;54.472;18.464;2023-02-19T01:51:14;99062.37;;;2.39;83.81
59588;BME280;45412;54.472;18.464;2023-02-19T01:54:06;99058.75;;;2.38;83.71
59588;BME280;45412;54.472;18.464;2023-02-19T01:56:56;99056.20;;;2.34;83.59
59588;BME280;45412;54.472;18.464;2023-02-19T01:59:46;99052.38;;;2.33;83.54
59588;BME280;45412;54.472;18.464;2023-02-19T02:02:35;99056.95;;;2.33;83.56
59588;BME280;45412;54.472;18.464;2023-02-19T02:05:37;99048.06;;;2.32;83.51
59588;BME280;45412;54.472;18.464;2023-02-19T02:08:27;99044.01;;;2.30;83.53
59588;BME280;45412;54.472;18.464;2023-02-19T02:11:50;99043.30;;;2.30;83.44
59588;BME280;45412;54.472;18.464;2023-02-19T02:14:43;99042.41;;;2.28;83.51
59588;BME280;45412;54.472;18.464;2023-02-19T02:17:45;99039.11;;;2.24;83.61
59588;BME280;45412;54.472;18.464;2023-02-19T02:28:02;99057.05;;;2.14;84.22
59588;BME280;45412;54.472;18.464;2023-02-19T02:30:58;99052.48;;;2.11;84.49
59588;BME280;45412;54.472;18.464;2023-02-19T02:34:00;99049.00;;;2.11;84.61
59588;BME280;45412;54.472;18.464;2023-02-19T02:36:54;99043.80;;;2.10;84.74
59588;BME280;45412;54.472;18.464;2023-02-19T02:39:45;99044.23;;;2.09;84.91
59588;BME280;45412;54.472;18.464;2023-02-19T02:42:38;99038.86;;;2.08;85.05
59588;BME280;45412;54.472;18.464;2023-02-19T02:45:31;99037.15;;;2.07;85.04
59588;BME280;45412;54.472;18.464;2023-02-19T02:48:50;99028.31;;;2.02;85.06
59588;BME280;45412;54.472;18.464;2023-02-19T02:51:46;99029.15;;;2.00;85.32
59588;BME280;45412;54.472;18.464;2023-02-19T02:54:40;99030.21;;;1.97;85.60
59588;BME280;45412;54.472;18.464;2023-02-19T02:57:50;99031.80;;;1.96;85.44
59588;BME280;45412;54.472;18.464;2023-02-19T03:00:40;99030.49;;;1.95;85.42
59588;BME280;45412;54.472;18.464;2023-02-19T03:03:54;99039.51;;;1.94;85.68
59588;BME280;45412;54.472;18.464;2023-02-19T03:06:46;99043.35;;;1.90;85.84
59588;BME280;45412;54.472;18.464;2023-02-19T03:09:39;99045.36;;;1.85;85.99
59588;BME280;45412;54.472;18.464;2023-02-19T03:12:29;99047.86;;;1.82;86.39
59588;BME280;45412;54.472;18.464;2023-02-19T03:15:45;99050.54;;;1.81;86.25
59588;BME280;45412;54.472;18.464;2023-02-19T03:18:54;99041.21;;;1.82;86.56
59588;BME280;45412;54.472;18.464;2023-02-19T03:22:25;99046.42;;;1.82;86.41
59588;BME280;45412;54.472;18.464;2023-02-19T03:25:24;99041.59;;;1.81;86.64
59588;BME280;45412;54.472;18.464;2023-02-19T03:28:35;99033.08;;;1.77;87.12
59588;BME280;45412;54.472;18.464;2023-02-19T03:32:14;99039.89;;;1.68;87.30
59588;BME280;45412;54.472;18.464;2023-02-19T03:35:14;99046.02;;;1.62;87.59
59588;BME280;45412;54.472;18.464;2023-02-19T03:38:22;99043.45;;;1.58;87.43
59588;BME280;45412;54.472;18.464;2023-02-19T03:41:32;99049.60;;;1.55;87.66
59588;BME280;45412;54.472;18.464;2023-02-19T03:44:44;99059.95;;;1.50;88.06
59588;BME280;45412;54.472;18.464;2023-02-19T03:47:51;99060.11;;;1.45;88.70
59588;BME280;45412;54.472;18.464;2023-02-19T03:54:31;99066.06;;;1.41;89.27
59588;BME280;45412;54.472;18.464;2023-02-19T03:58:07;99067.45;;;1.41;89.48
59588;BME280;45412;54.472;18.464;2023-02-19T04:01:20;99069.91;;;1.41;90.08
59588;BME280;45412;54.472;18.464;2023-02-19T04:04:21;99070.86;;;1.40;90.33
59588;BME280;45412;54.472;18.464;2023-02-19T04:07:11;99067.34;;;1.40;90.59
59588;BME280;45412;54.472;18.464;2023-02-19T04:10:01;99068.80;;;1.43;90.55
59588;BME280;45412;54.472;18.464;2023-02-19T04:12:56;99067.38;;;1.46;90.75
59588;BME280;45412;54.472;18.464;2023-02-19T04:15:47;99065.37;;;1.50;90.64
59588;BME280;45412;54.472;18.464;2023-02-19T04:18:40;99062.14;;;1.52;90.41
59588;BME280;45412;54.472;18.464;2023-02-19T04:21:29;99061.25;;;1.52;90.49
59588;BME280;45412;54.472;18.464;2023-02-19T04:24:33;99061.21;;;1.50;90.42
59588;BME280;45412;54.472;18.464;2023-02-19T04:27:24;99061.24;;;1.46;90.71
59588;BME280;45412;54.472;18.464;2023-02-19T04:30:13;99059.81;;;1.44;91.19
59588;BME280;45412;54.472;18.464;2023-02-19T04:33:01;99053.44;;;1.45;90.93
59588;BME280;45412;54.472;18.464;2023-02-19T04:35:49;99050.88;;;1.44;91.02
59588;BME280;45412;54.472;18.464;2023-02-19T04:38:37;99054.61;;;1.43;90.96
59588;BME280;45412;54.472;18.464;2023-02-19T04:41:25;99051.86;;;1.42;91.10
59588;BME280;45412;54.472;18.464;2023-02-19T04:44:13;99049.81;;;1.41;90.75
59588;BME280;45412;54.472;18.464;2023-02-19T04:47:01;99055.59;;;1.41;90.89
59588;BME280;45412;54.472;18.464;2023-02-19T04:49:48;99054.80;;;1.39;91.05
59588;BME280;45412;54.472;18.464;2023-02-19T04:52:36;99050.00;;;1.38;90.95
59588;BME280;45412;54.472;18.464;2023-02-19T04:55:24;99044.17;;;1.36;91.08
59588;BME280;45412;54.472;18.464;2023-02-19T04:58:13;99043.92;;;1.34;91.25
59588;BME280;45412;54.472;18.464;2023-02-19T05:01:01;99050.63;;;1.32;91.56
59588;BME280;45412;54.472;18.464;2023-02-19T05:03:50;99048.29;;;1.34;91.57
59588;BME280;45412;54.472;18.464;2023-02-19T05:06:38;99049.91;;;1.36;91.78
59588;BME280;45412;54.472;18.464;2023-02-19T05:09:27;99058.04;;;1.41;91.87
59588;BME280;45412;54.472;18.464;2023-02-19T05:12:14;99054.08;;;1.43;92.03
59588;BME280;45412;54.472;18.464;2023-02-19T05:15:02;99049.56;;;1.43;91.77
59588;BME280;45412;54.472;18.464;2023-02-19T05:17:50;99056.39;;;1.49;91.56
59588;BME280;45412;54.472;18.464;2023-02-19T05:20:38;99054.58;;;1.50;91.46
59588;BME280;45412;54.472;18.464;2023-02-19T05:23:27;99057.27;;;1.51;91.31
59588;BME280;45412;54.472;18.464;2023-02-19T05:26:19;99059.44;;;1.54;91.17
59588;BME280;45412;54.472;18.464;2023-02-19T05:29:07;99065.55;;;1.57;91.21
59588;BME280;45412;54.472;18.464;2023-02-19T05:31:55;99061.79;;;1.58;91.25
59588;BME280;45412;54.472;18.464;2023-02-19T05:34:43;99065.88;;;1.60;91.03
59588;BME280;45412;54.472;18.464;2023-02-19T05:37:31;99064.45;;;1.61;91.14
59588;BME280;45412;54.472;18.464;2023-02-19T05:40:19;99069.40;;;1.66;90.99
59588;BME280;45412;54.472;18.464;2023-02-19T05:43:08;99068.27;;;1.67;90.86
59588;BME280;45412;54.472;18.464;2023-02-19T05:45:57;99070.66;;;1.68;90.86
59588;BME280;45412;54.472;18.464;2023-02-19T05:48:47;99070.69;;;1.71;90.83
59588;BME280;45412;54.472;18.464;2023-02-19T05:51:35;99069.42;;;1.75;90.61
59588;BME280;45412;54.472;18.464;2023-02-19T05:54:23;99071.66;;;1.78;90.45
59588;BME280;45412;54.472;18.464;2023-02-19T05:57:10;99073.75;;;1.82;90.43
59588;BME280;45412;54.472;18.464;2023-02-19T05:59:58;99075.31;;;1.85;90.27
59588;BME280;45412;54.472;18.464;2023-02-19T06:02:47;99072.16;;;1.89;90.04
59588;BME280;45412;54.472;18.464;2023-02-19T06:05:36;99075.01;;;1.91;90.18
59588;BME280;45412;54.472;18.464;2023-02-19T06:08:24;99079.10;;;1.92;90.07
59588;BME280;45412;54.472;18.464;2023-02-19T06:11:12;99082.84;;;1.94;89.82
59588;BME280;45412;54.472;18.464;2023-02-19T06:14:00;99085.49;;;1.97;90.03
59588;BME280;45412;54.472;18.464;2023-02-19T06:16:48;99085.44;;;2.01;89.78
59588;BME280;45412;54.472;18.464;2023-02-19T06:19:36;99088.80;;;2.06;89.77
59588;BME280;45412;54.472;18.464;2023-02-19T06:22:24;99089.14;;;2.10;89.55
59588;BME280;45412;54.472;18.464;2023-02-19T06:25:12;99092.22;;;2.11;89.64
59588;BME280;45412;54.472;18.464;2023-02-19T06:28:00;99092.44;;;2.10;89.30
59588;BME280;45412;54.472;18.464;2023-02-19T06:30:47;99099.67;;;2.09;89.27
59588;BME280;45412;54.472;18.464;2023-02-19T06:33:39;99102.70;;;2.08;89.38
59588;BME280;45412;54.472;18.464;2023-02-19T06:36:27;99104.39;;;2.09;89.23
59588;BME280;45412;54.472;18.464;2023-02-19T06:39:15;99108.20;;;2.10;89.07
59588;BME280;45412;54.472;18.464;2023-02-19T06:42:03;99115.33;;;2.11;88.86
59588;BME280;45412;54.472;18.464;2023-02-19T06:44:51;99120.91;;;2.11;88.84
59588;BME280;45412;54.472;18.464;2023-02-19T06:47:39;99125.89;;;2.13;88.78
59588;BME280;45412;54.472;18.464;2023-02-19T06:50:27;99128.41;;;2.14;88.50
59588;BME280;45412;54.472;18.464;2023-02-19T06:53:15;99133.23;;;2.19;88.77
59588;BME280;45412;54.472;18.464;2023-02-19T06:56:18;99134.36;;;2.24;88.54
59588;BME280;45412;54.472;18.464;2023-02-19T06:59:11;99140.18;;;2.29;88.22
59588;BME280;45412;54.472;18.464;2023-02-19T07:02:00;99142.95;;;2.35;87.92
59588;BME280;45412;54.472;18.464;2023-02-19T07:04:48;99149.85;;;2.40;87.19
59588;BME280;45412;54.472;18.464;2023-02-19T07:07:35;99151.06;;;2.46;86.48
59588;BME280;45412;54.472;18.464;2023-02-19T07:10:23;99154.09;;;2.51;85.38
59588;BME280;45412;54.472;18.464;2023-02-19T07:13:11;99154.43;;;2.58;84.70
59588;BME280;45412;54.472;18.464;2023-02-19T07:16:10;99160.65;;;2.62;84.13
59588;BME280;45412;54.472;18.464;2023-02-19T07:18:59;99155.81;;;2.70;83.86
59588;BME280;45412;54.472;18.464;2023-02-19T07:21:54;99159.38;;;2.78;83.78
59588;BME280;45412;54.472;18.464;2023-02-19T07:24:41;99158.90;;;2.86;83.17
59588;BME280;45412;54.472;18.464;2023-02-19T07:27:30;99158.31;;;2.90;83.05
59588;BME280;45412;54.472;18.464;2023-02-19T07:30:18;99164.98;;;3.04;82.43
59588;BME280;45412;54.472;18.464;2023-02-19T07:33:07;99167.91;;;3.14;81.50
59588;BME280;45412;54.472;18.464;2023-02-19T07:35:58;99162.96;;;3.28;81.31
59588;BME280;45412;54.472;18.464;2023-02-19T07:38:46;99175.84;;;3.53;80.51
59588;BME280;45412;54.472;18.464;2023-02-19T07:41:34;99171.70;;;4.07;79.29
59588;BME280;45412;54.472;18.464;2023-02-19T07:44:22;99173.67;;;4.99;76.21
59588;BME280;45412;54.472;18.464;2023-02-19T07:47:10;99173.01;;;5.84;72.08
59588;BME280;45412;54.472;18.464;2023-02-19T07:49:59;99175.44;;;6.45;69.48
59588;BME280;45412;54.472;18.464;2023-02-19T07:52:46;99175.87;;;7.05;66.27
59588;BME280;45412;54.472;18.464;2023-02-19T07:55:34;99177.55;;;7.45;63.37
59588;BME280;45412;54.472;18.464;2023-02-19T07:58:22;99185.20;;;7.84;62.83
59588;BME280;45412;54.472;18.464;2023-02-19T08:01:22;99183.02;;;8.48;58.25
59588;BME280;45412;54.472;18.464;2023-02-19T08:04:31;99186.90;;;8.99;56.91
59588;BME280;45412;54.472;18.464;2023-02-19T08:07:20;99193.39;;;9.44;54.19
59588;BME280;45412;54.472;18.464;2023-02-19T08:10:10;99193.38;;;9.74;52.91
59588;BME280;45412;54.472;18.464;2023-02-19T08:13:17;99201.88;;;9.50;53.25
59588;BME280;45412;54.472;18.464;2023-02-19T08:16:15;99206.09;;;9.25;53.74
59588;BME280;45412;54.472;18.464;2023-02-19T08:19:20;99215.80;;;9.17;54.15
59588;BME280;45412;54.472;18.464;2023-02-19T08:22:09;99218.45;;;8.88;53.32
59588;BME280;45412;54.472;18.464;2023-02-19T08:24:57;99222.64;;;8.80;53.99
59588;BME280;45412;54.472;18.464;2023-02-19T08:27:44;99223.91;;;8.97;52.99
59588;BME280;45412;54.472;18.464;2023-02-19T08:30:33;99218.65;;;9.05;53.21
59588;BME280;45412;54.472;18.464;2023-02-19T08:33:21;99223.89;;;8.80;53.42
59588;BME280;45412;54.472;18.464;2023-02-19T08:36:10;99228.66;;;8.59;53.94
59588;BME280;45412;54.472;18.464;2023-02-19T08:38:58;99233.91;;;8.13;54.06
59588;BME280;45412;54.472;18.464;2023-02-19T08:41:46;99239.21;;;7.91;55.31
59588;BME280;45412;54.472;18.464;2023-02-19T08:44:34;99243.97;;;7.82;55.18
59588;BME280;45412;54.472;18.464;2023-02-19T08:47:22;99244.27;;;8.14;53.51
59588;BME280;45412;54.472;18.464;2023-02-19T08:50:11;99248.08;;;8.55;53.31
59588;BME280;45412;54.472;18.464;2023-02-19T08:52:59;99248.83;;;8.95;51.38
59588;BME280;45412;54.472;18.464;2023-02-19T08:55:47;99250.86;;;10.02;48.83
59588;BME280;45412;54.472;18.464;2023-02-19T08:58:36;99251.61;;;10.73;47.57
59588;BME280;45412;54.472;18.464;2023-02-19T09:01:24;99250.63;;;11.72;44.70
59588;BME280;45412;54.472;18.464;2023-02-19T09:04:12;99243.29;;;12.68;44.39
59588;BME280;45412;54.472;18.464;2023-02-19T09:06:59;99241.61;;;13.49;41.61
59588;BME280;45412;54.472;18.464;2023-02-19T09:09:48;99247.06;;;14.01;39.37
59588;BME280;45412;54.472;18.464;2023-02-19T09:12:35;99249.25;;;14.75;37.05
59588;BME280;45412;54.472;18.464;2023-02-19T09:15:25;99246.80;;;15.58;35.72
59588;BME280;45412;54.472;18.464;2023-02-19T09:18:13;99249.63;;;15.49;34.93
59588;BME280;45412;54.472;18.464;2023-02-19T09:21:03;99250.36;;;15.50;35.03
59588;BME280;45412;54.472;18.464;2023-02-19T09:23:51;99250.53;;;15.47;34.94
59588;BME280;45412;54.472;18.464;2023-02-19T09:26:39;99243.30;;;14.96;35.32
59588;BME280;45412;54.472;18.464;2023-02-19T09:29:28;99253.14;;;15.05;34.62
59588;BME280;45412;54.472;18.464;2023-02-19T09:32:16;99250.05;;;14.12;36.06
59588;BME280;45412;54.472;18.464;2023-02-19T09:35:06;99248.98;;;14.83;35.06
59588;BME280;45412;54.472;18.464;2023-02-19T09:37:54;99254.32;;;15.69;33.81
59588;BME280;45412;54.472;18.464;2023-02-19T09:40:42;99249.25;;;16.47;32.03
59588;BME280;45412;54.472;18.464;2023-02-19T09:43:30;99248.98;;;17.07;30.09
59588;BME280;45412;54.472;18.464;2023-02-19T09:46:35;99260.04;;;15.84;29.09
59588;BME280;45412;54.472;18.464;2023-02-19T09:49:28;99259.00;;;15.04;29.44
59588;BME280;45412;54.472;18.464;2023-02-19T09:52:30;99265.80;;;15.43;29.51
59588;BME280;45412;54.472;18.464;2023-02-19T09:55:38;99266.02;;;16.09;29.08
59588;BME280;45412;54.472;18.464;2023-02-19T09:58:34;99266.48;;;17.44;28.24
59588;BME280;45412;54.472;18.464;2023-02-19T10:01:26;99261.98;;;18.28;26.77
59588;BME280;45412;54.472;18.464;2023-02-19T10:04:17;99262.19;;;19.22;25.82
59588;BME280;45412;54.472;18.464;2023-02-19T10:07:19;99269.91;;;20.21;24.85
59588;BME280;45412;54.472;18.464;2023-02-19T10:13:23;99270.52;;;19.68;23.32
59588;BME280;45412;54.472;18.464;2023-02-19T10:16:24;99280.33;;;18.53;23.64
59588;BME280;45412;54.472;18.464;2023-02-19T10:19:14;99277.24;;;16.83;24.31
59588;BME280;45412;54.472;18.464;2023-02-19T10:22:03;99286.52;;;14.74;26.77
59588;BME280;45412;54.472;18.464;2023-02-19T10:24:54;99280.70;;;15.46;27.00
59588;BME280;45412;54.472;18.464;2023-02-19T10:27:43;99280.08;;;14.97;27.82
59588;BME280;45412;54.472;18.464;2023-02-19T10:30:34;99283.14;;;13.57;29.09
59588;BME280;45412;54.472;18.464;2023-02-19T10:33:23;99292.56;;;12.57;30.23
59588;BME280;45412;54.472;18.464;2023-02-19T10:36:37;99306.38;;;11.75;31.06
59588;BME280;45412;54.472;18.464;2023-02-19T10:39:45;99300.02;;;11.05;31.90
59588;BME280;45412;54.472;18.464;2023-02-19T10:42:34;99302.44;;;11.34;32.73
59588;BME280;45412;54.472;18.464;2023-02-19T10:45:43;99299.50;;;13.41;30.54
59588;BME280;45412;54.472;18.464;2023-02-19T10:48:37;99292.05;;;15.35;26.92
59588;BME280;45412;54.472;18.464;2023-02-19T10:51:36;99303.09;;;16.10;25.47
59588;BME280;45412;54.472;18.464;2023-02-19T10:54:31;99304.73;;;16.10;25.59
59588;BME280;45412;54.472;18.464;2023-02-19T11:00:26;99308.23;;;17.26;23.61
59588;BME280;45412;54.472;18.464;2023-02-19T11:03:21;99310.16;;;18.45;22.91
59588;BME280;45412;54.472;18.464;2023-02-19T11:06:12;99313.23;;;19.40;21.73
59588;BME280;45412;54.472;18.464;2023-02-19T11:09:00;99317.23;;;20.17;21.24
59588;BME280;45412;54.472;18.464;2023-02-19T11:11:51;99324.52;;;20.65;20.17
59588;BME280;45412;54.472;18.464;2023-02-19T11:14:43;99324.98;;;20.90;19.71
59588;BME280;45412;54.472;18.464;2023-02-19T11:17:32;99327.20;;;20.77;19.18
59588;BME280;45412;54.472;18.464;2023-02-19T11:20:19;99327.73;;;20.78;19.42
59588;BME280;45412;54.472;18.464;2023-02-19T11:23:24;99330.20;;;20.75;19.65
59588;BME280;45412;54.472;18.464;2023-02-19T11:26:20;99333.06;;;19.13;20.47
59588;BME280;45412;54.472;18.464;2023-02-19T11:29:20;99342.08;;;16.97;22.49
59588;BME280;45412;54.472;18.464;2023-02-19T11:32:27;99352.31;;;15.22;24.42
59588;BME280;45412;54.472;18.464;2023-02-19T11:35:21;99355.33;;;14.30;25.73
59588;BME280;45412;54.472;18.464;2023-02-19T11:38:14;99356.52;;;12.68;28.04
59588;BME280;45412;54.472;18.464;2023-02-19T11:54:53;99388.73;;;9.04;34.70
59588;BME280;45412;54.472;18.464;2023-02-19T11:58:01;99397.58;;;8.33;36.91
59588;BME280;45412;54.472;18.464;2023-02-19T12:05:03;99394.42;;;8.71;37.61
59588;BME280;45412;54.472;18.464;2023-02-19T12:40:29;99429.36;;;10.45;28.62
59588;BME280;45412;54.472;18.464;2023-02-19T12:43:22;99439.45;;;9.99;29.05
59588;BME280;45412;54.472;18.464;2023-02-19T12:46:15;99440.95;;;9.92;28.65
59588;BME280;45412;54.472;18.464;2023-02-19T12:49:35;99439.81;;;9.84;28.16
59588;BME280;45412;54.472;18.464;2023-02-19T12:52:27;99438.40;;;9.51;27.08
59588;BME280;45412;54.472;18.464;2023-02-19T12:55:46;99443.18;;;9.31;27.28
59588;BME280;45412;54.472;18.464;2023-02-19T13:02:37;99446.20;;;9.16;26.96
59588;BME280;45412;54.472;18.464;2023-02-19T13:08:31;99450.60;;;8.63;28.01
59588;BME280;45412;54.472;18.464;2023-02-19T13:11:28;99452.64;;;8.44;28.55
59588;BME280;45412;54.472;18.464;2023-02-19T13:17:52;99454.21;;;7.41;29.82
59588;BME280;45412;54.472;18.464;2023-02-19T13:20:43;99454.30;;;7.08;30.72
59588;BME280;45412;54.472;18.464;2023-02-19T13:23:40;99465.86;;;6.92;31.86
59588;BME280;45412;54.472;18.464;2023-02-19T13:31:08;99464.05;;;6.61;32.67
59588;BME280;45412;54.472;18.464;2023-02-19T13:36:59;99481.73;;;6.22;33.83
59588;BME280;45412;54.472;18.464;2023-02-19T13:39:53;99485.43;;;5.95;33.55
59588;BME280;45412;54.472;18.464;2023-02-19T13:42:51;99495.34;;;5.68;34.73
59588;BME280;45412;54.472;18.464;2023-02-19T13:45:42;99501.21;;;5.54;34.99
59588;BME280;45412;54.472;18.464;2023-02-19T13:48:36;99507.46;;;5.31;34.75
59588;BME280;45412;54.472;18.464;2023-02-19T13:54:30;99515.86;;;4.84;34.61
59588;BME280;45412;54.472;18.464;2023-02-19T14:00:49;99509.49;;;4.59;36.22
59588;BME280;45412;54.472;18.464;2023-02-19T14:03:54;99514.67;;;4.46;36.46
59588;BME280;45412;54.472;18.464;2023-02-19T14:09:51;99524.65;;;4.29;37.14
59588;BME280;45412;54.472;18.464;2023-02-19T14:12:39;99522.02;;;4.23;37.65
59588;BME280;45412;54.472;18.464;2023-02-19T14:15:42;99533.23;;;4.18;37.97
59588;BME280;45412;54.472;18.464;2023-02-19T14:18:44;99529.13;;;3.98;38.40
59588;BME280;45412;54.472;18.464;2023-02-19T14:21:38;99543.36;;;3.83;38.86
59588;BME280;45412;54.472;18.464;2023-02-19T14:24:27;99535.17;;;3.75;39.15
59588;BME280;45412;54.472;18.464;2023-02-19T14:27:15;99538.19;;;3.69;39.58
59588;BME280;45412;54.472;18.464;2023-02-19T14:30:04;99541.10;;;3.61;40.04
59588;BME280;45412;54.472;18.464;2023-02-19T14:32:53;99543.65;;;3.53;40.81
59588;BME280;45412;54.472;18.464;2023-02-19T14:36:41;99542.70;;;3.45;41.15
59588;BME280;45412;54.472;18.464;2023-02-19T14:39:34;99547.86;;;3.34;41.51
59588;BME280;45412;54.472;18.464;2023-02-19T14:42:26;99541.80;;;3.26;41.88
59588;BME280;45412;54.472;18.464;2023-02-19T14:45:20;99548.45;;;3.14;42.69
59588;BME280;45412;54.472;18.464;2023-02-19T14:48:36;99552.48;;;3.07;43.03
59588;BME280;45412;54.472;18.464;2023-02-19T14:51:34;99564.92;;;3.01;43.16
59588;BME280;45412;54.472;18.464;2023-02-19T14:57:43;99568.34;;;2.83;44.16
59588;BME280;45412;54.472;18.464;2023-02-19T15:00:36;99572.59;;;2.79;44.65
59588;BME280;45412;54.472;18.464;2023-02-19T15:03:36;99576.20;;;2.74;45.92
59588;BME280;45412;54.472;18.464;2023-02-19T15:06:24;99581.80;;;2.67;46.75
59588;BME280;45412;54.472;18.464;2023-02-19T15:09:15;99586.31;;;2.65;50.33
59588;BME280;45412;54.472;18.464;2023-02-19T15:12:04;99590.60;;;2.63;50.23
59588;BME280;45412;54.472;18.464;2023-02-19T15:14:56;99590.35;;;2.61;50.63
59588;BME280;45412;54.472;18.464;2023-02-19T15:17:47;99592.44;;;2.58;51.12
59588;BME280;45412;54.472;18.464;2023-02-19T15:20:36;99595.05;;;2.52;51.12
59588;BME280;45412;54.472;18.464;2023-02-19T15:23:24;99596.21;;;2.43;50.94
59588;BME280;45412;54.472;18.464;2023-02-19T15:26:37;99601.50;;;2.35;51.68
59588;BME280;45412;54.472;18.464;2023-02-19T15:29:26;99605.06;;;2.27;52.25
59588;BME280;45412;54.472;18.464;2023-02-19T15:32:19;99617.47;;;2.24;51.63
59588;BME280;45412;54.472;18.464;2023-02-19T15:35:18;99610.33;;;2.12;52.06
59588;BME280;45412;54.472;18.464;2023-02-19T15:38:09;99608.56;;;1.98;52.31
59588;BME280;45412;54.472;18.464;2023-02-19T15:40:59;99620.55;;;1.86;52.13
59588;BME280;45412;54.472;18.464;2023-02-19T15:47:10;99630.56;;;1.63;53.63
59588;BME280;45412;54.472;18.464;2023-02-19T15:50:10;99636.11;;;1.53;54.43
59588;BME280;45412;54.472;18.464;2023-02-19T15:53:29;99634.61;;;1.44;55.30
59588;BME280;45412;54.472;18.464;2023-02-19T15:56:24;99639.46;;;1.33;56.36
59588;BME280;45412;54.472;18.464;2023-02-19T16:02:23;99641.95;;;1.17;57.83
59588;BME280;45412;54.472;18.464;2023-02-19T16:05:23;99646.79;;;1.11;57.97
59588;BME280;45412;54.472;18.464;2023-02-19T16:11:06;99653.44;;;0.95;60.55
59588;BME280;45412;54.472;18.464;2023-02-19T16:17:19;99655.03;;;0.83;61.75
59588;BME280;45412;54.472;18.464;2023-02-19T16:20:28;99659.15;;;0.76;62.78
59588;BME280;45412;54.472;18.464;2023-02-19T16:23:19;99667.70;;;0.68;63.62
59588;BME280;45412;54.472;18.464;2023-02-19T16:26:11;99684.36;;;0.62;63.50
59588;BME280;45412;54.472;18.464;2023-02-19T16:28:59;99687.20;;;0.57;64.14
59588;BME280;45412;54.472;18.464;2023-02-19T16:32:05;99685.66;;;0.53;64.63
59588;BME280;45412;54.472;18.464;2023-02-19T16:34:54;99690.59;;;0.47;64.70
59588;BME280;45412;54.472;18.464;2023-02-19T16:38:02;99688.36;;;0.42;65.22
59588;BME280;45412;54.472;18.464;2023-02-19T16:43:42;99682.39;;;0.34;66.27
59588;BME280;45412;54.472;18.464;2023-02-19T16:46:31;99685.86;;;0.30;66.38
59588;BME280;45412;54.472;18.464;2023-02-19T16:49:21;99685.48;;;0.27;66.65
59588;BME280;45412;54.472;18.464;2023-02-19T16:52:14;99691.86;;;0.25;67.16
59588;BME280;45412;54.472;18.464;2023-02-19T16:55:10;99690.59;;;0.22;67.10
59588;BME280;45412;54.472;18.464;2023-02-19T16:57:58;99694.42;;;0.18;67.07
59588;BME280;45412;54.472;18.464;2023-02-19T17:00:47;99695.05;;;0.15;67.23
59588;BME280;45412;54.472;18.464;2023-02-19T17:03:37;99690.30;;;0.12;68.00
59588;BME280;45412;54.472;18.464;2023-02-19T17:06:26;99692.63;;;0.11;67.46
59588;BME280;45412;54.472;18.464;2023-02-19T17:09:14;99696.75;;;0.08;67.90
59588;BME280;45412;54.472;18.464;2023-02-19T17:12:02;99697.88;;;0.06;67.71